Terminal Aerodrome Forecast
Issued by NWS

Home | Current Version | Previous Version | Text Only | Print | Product List | Glossary On
Versions: 1 2 3 4 5 6 7 8 9 10 11 12 13 14 15
000
FTUS43 KMQT 292329
TAFCMX
TAF
KCMX 292329Z 3000/3024 24004KT P6SM BKN100
     FM300200 24004KT P6SM VCTS BKN080CB
     FM300500 26007KT P6SM BKN060
     FM301000 30008KT P6SM BKN045
     FM301100 31008KT P6SM SCT040
     FM301800 30012KT P6SM SKC=

USA.gov is the U.S. government's official web portal to all federal, state and local government web resources and services.